createdAt,value
2018-07-01T00:00:51.323Z,19.20
2018-07-01T00:03:18.355Z,19.20
2018-07-01T00:05:45.420Z,19.20
2018-07-01T00:08:12.460Z,19.20
2018-07-01T00:10:41.468Z,19.20
2018-07-01T00:15:37.077Z,19.10
2018-07-01T00:18:05.047Z,19.20
2018-07-01T00:20:33.085Z,19.10
2018-07-01T00:23:00.125Z,19.10
2018-07-01T00:25:28.039Z,19.10
2018-07-01T00:27:55.092Z,19.20
2018-07-01T00:30:22.113Z,19.10
2018-07-01T00:32:50.157Z,19.00
2018-07-01T00:35:17.244Z,19.10
2018-07-01T00:37:46.000Z,19.10
2018-07-01T00:40:13.217Z,19.10
2018-07-01T00:47:48.806Z,19.10
2018-07-01T00:50:16.742Z,19.10
2018-07-01T00:55:25.878Z,19.00
2018-07-01T00:57:53.625Z,19.10
2018-07-01T01:00:20.650Z,19.10
2018-07-01T01:07:41.995Z,19.00
2018-07-01T01:10:09.546Z,18.80
2018-07-01T01:15:03.768Z,18.80
2018-07-01T01:17:31.571Z,18.70
2018-07-01T01:19:59.230Z,18.50
2018-07-01T01:22:27.240Z,18.50
2018-07-01T01:24:55.979Z,18.60
2018-07-01T01:27:26.556Z,18.50
2018-07-01T01:29:54.124Z,18.50
2018-07-01T01:32:21.202Z,18.50
2018-07-01T01:34:48.235Z,18.50
2018-07-01T01:40:01.223Z,18.40
2018-07-01T01:42:28.596Z,18.30
2018-07-01T01:44:55.664Z,18.20
2018-07-01T01:47:22.745Z,18.20
2018-07-01T01:49:49.813Z,18.20
2018-07-01T01:52:17.823Z,18.10
2018-07-01T01:54:45.772Z,17.90
2018-07-01T01:57:12.805Z,17.90
2018-07-01T01:59:41.267Z,17.80
2018-07-01T02:02:08.830Z,17.80
2018-07-01T02:04:35.885Z,17.70
2018-07-01T02:07:02.982Z,17.40
2018-07-01T02:09:30.055Z,17.30
2018-07-01T02:11:57.090Z,17.20
2018-07-01T02:14:24.359Z,17.10
2018-07-01T02:16:51.444Z,17.00
2018-07-01T02:24:24.884Z,16.90
2018-07-01T02:26:51.924Z,17.00
2018-07-01T02:29:18.994Z,17.20
2018-07-01T02:34:25.499Z,17.30
2018-07-01T02:44:53.320Z,17.10
2018-07-01T02:47:20.391Z,17.10
2018-07-01T02:49:48.297Z,17.10
2018-07-01T02:52:17.248Z,17.10
2018-07-01T02:54:45.190Z,16.90
2018-07-01T03:02:21.996Z,16.60
2018-07-01T03:04:49.090Z,16.60
2018-07-01T03:09:55.277Z,16.50
2018-07-01T03:12:22.324Z,16.50
2018-07-01T03:14:50.475Z,16.60
2018-07-01T03:22:34.673Z,16.50
2018-07-01T03:25:02.664Z,16.60
2018-07-01T03:30:08.825Z,16.50
2018-07-01T03:32:35.913Z,16.50
2018-07-01T03:35:03.670Z,16.40
2018-07-01T03:37:30.743Z,16.40
2018-07-01T03:47:57.790Z,16.20
2018-07-01T03:50:31.527Z,16.10
2018-07-01T03:52:58.614Z,16.00
2018-07-01T04:00:39.772Z,15.90
2018-07-01T04:06:07.170Z,16.00
2018-07-01T04:08:49.012Z,16.10
2018-07-01T04:11:16.824Z,16.00
2018-07-01T04:13:43.621Z,16.00
2018-07-01T04:16:10.673Z,16.00
2018-07-01T04:18:37.701Z,16.00
2018-07-01T04:21:04.728Z,16.00
2018-07-01T04:23:31.809Z,16.00
2018-07-01T04:25:58.841Z,16.00
2018-07-01T04:28:26.061Z,16.00
2018-07-01T04:30:53.128Z,16.10
2018-07-01T04:33:20.131Z,16.00
2018-07-01T04:38:14.288Z,16.10
2018-07-01T04:40:42.257Z,16.10
2018-07-01T04:43:09.273Z,16.10
2018-07-01T04:45:37.275Z,16.10
2018-07-01T04:48:04.284Z,16.00
2018-07-01T04:50:31.335Z,16.00
2018-07-01T04:52:58.793Z,16.00
2018-07-01T04:55:25.877Z,15.90
2018-07-01T04:57:52.810Z,15.90
2018-07-01T05:02:58.903Z,16.00
2018-07-01T05:05:25.998Z,16.10
2018-07-01T05:07:53.038Z,16.20
2018-07-01T05:10:20.079Z,16.30
2018-07-01T05:12:47.946Z,16.30
2018-07-01T05:15:15.452Z,16.30
2018-07-01T05:17:42.497Z,16.30
2018-07-01T05:20:10.401Z,16.40
2018-07-01T05:25:15.751Z,16.50
2018-07-01T05:30:10.393Z,16.60
2018-07-01T05:32:37.799Z,16.80
2018-07-01T05:35:04.500Z,16.90
2018-07-01T05:37:34.529Z,17.10
2018-07-01T05:40:03.896Z,17.10
2018-07-01T05:42:31.940Z,17.30
2018-07-01T05:50:04.290Z,17.60
2018-07-01T05:52:31.343Z,17.10
2018-07-01T05:54:58.383Z,17.30
2018-07-01T05:57:26.174Z,17.50
2018-07-01T05:59:54.208Z,17.50
2018-07-01T06:02:22.182Z,17.50
2018-07-01T06:04:49.227Z,17.70
2018-07-01T06:07:17.239Z,17.60
2018-07-01T06:12:11.376Z,18.10
2018-07-01T06:14:38.434Z,18.10
2018-07-01T06:17:05.501Z,17.90
2018-07-01T06:19:32.494Z,18.20
2018-07-01T06:22:01.567Z,18.40
2018-07-01T06:24:28.630Z,18.00
2018-07-01T06:26:56.570Z,18.20
2018-07-01T06:32:01.834Z,18.30
2018-07-01T06:34:29.839Z,18.40
2018-07-01T06:36:56.882Z,18.30
2018-07-01T06:39:23.943Z,18.30
2018-07-01T06:41:57.837Z,18.70
2018-07-01T06:44:24.925Z,18.70
2018-07-01T06:47:00.779Z,19.10
2018-07-01T06:49:31.299Z,19.50
2018-07-01T07:03:02.514Z,19.90
2018-07-01T07:05:29.544Z,20.40
2018-07-01T07:07:56.573Z,19.70
2018-07-01T07:10:23.634Z,20.10
2018-07-01T07:15:35.279Z,20.70
2018-07-01T07:20:29.808Z,21.10
2018-07-01T07:22:56.896Z,20.80
2018-07-01T07:25:23.974Z,21.20
2018-07-01T07:27:51.006Z,21.50
2018-07-01T07:30:18.613Z,21.40
2018-07-01T07:32:46.559Z,21.30
2018-07-01T07:40:20.041Z,21.60
2018-07-01T07:42:48.026Z,21.50
2018-07-01T07:45:16.017Z,22.00
2018-07-01T07:47:43.988Z,21.60
2018-07-01T07:50:11.051Z,21.80
2018-07-01T07:52:38.111Z,21.20
2018-07-01T07:55:05.136Z,21.40
2018-07-01T07:57:32.190Z,21.50
2018-07-01T08:00:00.642Z,21.90
2018-07-01T08:02:27.687Z,22.20
2018-07-01T08:07:25.915Z,22.30
2018-07-01T08:09:52.934Z,22.50
2018-07-01T08:12:20.054Z,22.20
2018-07-01T08:14:47.088Z,22.00
2018-07-01T08:17:14.499Z,22.40
2018-07-01T08:19:42.396Z,22.20
2018-07-01T08:22:09.419Z,22.40
2018-07-01T08:24:36.492Z,22.00
2018-07-01T08:27:03.569Z,22.40
2018-07-01T08:29:30.590Z,22.40
2018-07-01T08:31:58.322Z,22.30
2018-07-01T08:34:25.388Z,22.50
2018-07-01T08:36:53.710Z,22.80
2018-07-01T08:39:20.726Z,22.60
2018-07-01T08:41:48.637Z,23.20
2018-07-01T08:44:15.647Z,23.50
2018-07-01T08:46:43.625Z,23.10
2018-07-01T08:49:10.584Z,23.10
2018-07-01T08:54:05.538Z,23.10
2018-07-01T08:56:32.595Z,23.00
2018-07-01T08:59:00.597Z,23.30
2018-07-01T09:04:08.166Z,23.00
2018-07-01T09:06:35.214Z,22.30
2018-07-01T09:09:02.968Z,22.60
2018-07-01T09:11:31.343Z,23.10
2018-07-01T09:13:58.437Z,23.00
2018-07-01T09:16:25.444Z,23.30
2018-07-01T09:18:52.508Z,22.80
2018-07-01T09:21:20.380Z,23.20
2018-07-01T09:23:47.400Z,22.80
2018-07-01T09:26:15.143Z,23.60
2018-07-01T09:28:42.139Z,23.50
2018-07-01T09:31:09.979Z,23.30
2018-07-01T09:33:37.005Z,23.30
2018-07-01T09:36:04.470Z,22.80
2018-07-01T09:38:31.474Z,23.60
2018-07-01T09:40:59.431Z,23.70
2018-07-01T09:45:53.549Z,23.70
2018-07-01T09:48:22.574Z,23.90
2018-07-01T09:50:49.590Z,23.80
2018-07-01T09:56:30.791Z,23.20
2018-07-01T09:58:58.037Z,23.50
2018-07-01T10:01:25.074Z,23.60
2018-07-01T10:03:52.164Z,24.10
2018-07-01T10:06:19.197Z,24.40
2018-07-01T10:08:47.330Z,24.20
2018-07-01T10:11:14.301Z,24.00
2018-07-01T10:13:43.830Z,24.00
2018-07-01T10:23:48.254Z,24.10
2018-07-01T10:36:57.714Z,25.20
2018-07-01T10:39:25.704Z,25.50
2018-07-01T10:41:53.254Z,25.70
2018-07-01T10:44:20.969Z,26.20
2018-07-01T10:46:48.112Z,26.30
2018-07-01T10:49:16.031Z,26.50
2018-07-01T10:57:04.627Z,27.00
2018-07-01T10:59:32.608Z,26.70
2018-07-01T11:02:00.568Z,26.60
2018-07-01T11:06:56.432Z,26.30
2018-07-01T11:09:23.518Z,26.30
2018-07-01T11:11:50.658Z,26.10
2018-07-01T11:14:18.559Z,26.00
2018-07-01T11:16:45.654Z,26.00
2018-07-01T11:19:12.660Z,25.90
2018-07-01T11:21:39.715Z,26.30
2018-07-01T11:24:06.738Z,25.80
2018-07-01T11:29:00.879Z,26.20
2018-07-01T11:31:28.722Z,26.40
2018-07-01T11:33:55.751Z,26.50
2018-07-01T11:36:23.687Z,26.70
2018-07-01T11:38:51.564Z,26.60
2018-07-01T11:41:19.742Z,26.70
2018-07-01T11:46:13.625Z,26.80
2018-07-01T11:48:40.659Z,26.90
2018-07-01T11:51:08.661Z,27.00
2018-07-01T11:53:35.738Z,27.10
2018-07-01T11:56:03.712Z,27.10
2018-07-01T11:58:30.737Z,26.90
2018-07-01T12:00:58.691Z,27.10
2018-07-01T12:03:25.726Z,27.30
2018-07-01T12:05:53.307Z,26.40
2018-07-01T12:08:20.995Z,26.60
2018-07-01T12:10:48.006Z,26.60
2018-07-01T12:15:53.789Z,26.90
2018-07-01T12:18:21.974Z,26.80
2018-07-01T12:20:47.856Z,26.80
2018-07-01T12:23:15.886Z,26.20
2018-07-01T12:28:10.954Z,26.50
2018-07-01T12:30:38.011Z,26.40
2018-07-01T12:33:06.031Z,26.60
2018-07-01T12:35:33.037Z,26.80
2018-07-01T12:38:00.764Z,26.60
2018-07-01T12:40:27.844Z,26.60
2018-07-01T12:42:54.863Z,26.60
2018-07-01T12:45:21.878Z,26.80
2018-07-01T12:47:48.989Z,26.60
2018-07-01T12:50:15.976Z,26.80
2018-07-01T12:55:10.103Z,26.70
2018-07-01T12:57:37.112Z,26.90
2018-07-01T13:02:32.061Z,26.70
2018-07-01T13:04:59.989Z,26.90
2018-07-01T13:07:26.993Z,26.60
2018-07-01T13:09:54.972Z,27.00
2018-07-01T13:12:21.973Z,26.90
2018-07-01T13:14:49.907Z,26.80
2018-07-01T13:19:44.023Z,26.90
2018-07-01T13:22:11.055Z,26.80
2018-07-01T13:29:32.334Z,26.30
2018-07-01T13:31:59.379Z,26.40
2018-07-01T13:37:04.907Z,26.30
2018-07-01T13:39:31.907Z,26.50
2018-07-01T13:41:58.914Z,26.40
2018-07-01T13:44:25.967Z,25.90
2018-07-01T13:46:52.973Z,26.00
2018-07-01T13:51:47.925Z,26.10
2018-07-01T13:54:15.884Z,26.20
2018-07-01T13:56:42.918Z,26.40
2018-07-01T13:59:10.828Z,26.30
2018-07-01T14:01:37.926Z,26.20
2018-07-01T14:04:04.905Z,26.50
2018-07-01T14:06:31.926Z,26.70
2018-07-01T14:08:58.917Z,26.60
2018-07-01T14:11:25.929Z,26.30
2018-07-01T14:13:52.956Z,26.20
2018-07-01T14:16:19.970Z,26.20
2018-07-01T14:18:48.019Z,26.30
2018-07-01T14:21:15.062Z,26.30
2018-07-01T14:23:42.925Z,26.10
2018-07-01T14:26:09.983Z,26.00
2018-07-01T14:28:37.083Z,26.00
2018-07-01T14:33:42.673Z,26.00
2018-07-01T14:36:10.509Z,26.00
2018-07-01T14:38:37.522Z,26.20
2018-07-01T14:43:32.537Z,25.90
2018-07-01T14:45:59.583Z,26.00
2018-07-01T14:48:26.638Z,25.90
2018-07-01T14:50:53.629Z,26.10
2018-07-01T14:53:21.459Z,25.90
2018-07-01T14:55:48.493Z,25.70
2018-07-01T15:00:42.585Z,26.20
2018-07-01T15:03:10.526Z,26.00
2018-07-01T15:05:37.532Z,25.80
2018-07-01T15:08:04.553Z,25.80
2018-07-01T15:12:59.510Z,25.80
2018-07-01T15:15:26.522Z,25.60
2018-07-01T15:17:53.583Z,25.90
2018-07-01T15:20:20.593Z,25.90
2018-07-01T15:25:15.562Z,26.10
2018-07-01T15:27:42.582Z,26.00
2018-07-01T15:30:09.591Z,26.20
2018-07-01T15:32:37.702Z,25.80
2018-07-01T15:35:07.730Z,25.70
2018-07-01T15:40:13.303Z,25.70
2018-07-01T15:42:40.246Z,25.70
2018-07-01T15:45:07.255Z,25.60
2018-07-01T15:47:34.307Z,25.60
2018-07-01T15:50:01.337Z,25.50
2018-07-01T15:52:29.383Z,25.60
2018-07-01T15:54:56.474Z,25.60
2018-07-01T15:57:23.419Z,25.60
2018-07-01T15:59:50.442Z,25.50
2018-07-01T16:02:17.616Z,25.30
2018-07-01T16:04:44.617Z,25.40
2018-07-01T16:09:38.896Z,25.30
2018-07-01T16:12:05.897Z,25.30
2018-07-01T16:14:32.916Z,25.40
2018-07-01T16:17:01.739Z,25.50
2018-07-01T16:19:29.606Z,25.40
2018-07-01T16:21:56.620Z,25.30
2018-07-01T16:24:23.662Z,25.10
2018-07-01T16:31:46.766Z,25.20
2018-07-01T16:34:13.773Z,25.30
2018-07-01T16:39:07.921Z,25.20
2018-07-01T16:41:34.928Z,25.20
2018-07-01T16:44:01.927Z,25.20
2018-07-01T16:46:28.965Z,25.10
2018-07-01T16:48:56.907Z,25.10
2018-07-01T16:51:23.917Z,25.30
2018-07-01T16:53:50.965Z,25.30
2018-07-01T17:01:25.563Z,25.10
2018-07-01T17:03:52.569Z,25.10
2018-07-01T17:06:19.574Z,25.00
2018-07-01T17:08:47.153Z,25.00
2018-07-01T17:11:14.155Z,24.90
2018-07-01T17:13:41.248Z,24.70
2018-07-01T17:16:08.216Z,24.80
2018-07-01T17:18:35.304Z,24.60
2018-07-01T17:21:02.236Z,24.60
2018-07-01T17:23:29.264Z,24.70
2018-07-01T17:25:56.259Z,24.50
2018-07-01T17:28:23.267Z,24.50
2018-07-01T17:30:50.313Z,24.50
2018-07-01T17:33:17.315Z,24.50
2018-07-01T17:38:11.449Z,24.30
2018-07-01T17:40:38.443Z,24.20
2018-07-01T17:43:05.449Z,24.20
2018-07-01T17:45:32.481Z,23.90
2018-07-01T17:48:00.471Z,23.90
2018-07-01T17:50:27.447Z,23.80
2018-07-01T17:52:54.506Z,23.80
2018-07-01T17:57:49.465Z,23.70
2018-07-01T18:00:16.500Z,23.40
2018-07-01T18:02:43.660Z,23.20
2018-07-01T18:05:10.631Z,23.30
2018-07-01T18:07:37.647Z,23.10
2018-07-01T18:10:04.631Z,23.10
2018-07-01T18:12:31.623Z,23.00
2018-07-01T18:14:58.740Z,23.00
2018-07-01T18:17:25.744Z,22.80
2018-07-01T18:19:53.715Z,22.80
2018-07-01T18:25:08.612Z,22.60
2018-07-01T18:27:27.349Z,22.60
2018-07-01T18:29:54.406Z,22.40
2018-07-01T18:32:21.708Z,22.40
2018-07-01T18:34:48.853Z,22.30
2018-07-01T18:37:15.918Z,22.10
2018-07-01T18:39:43.958Z,22.00
2018-07-01T18:42:11.376Z,21.90
2018-07-01T18:44:38.513Z,21.80
2018-07-01T18:47:05.866Z,21.80
2018-07-01T18:49:33.119Z,21.70
2018-07-01T18:52:00.376Z,21.60
2018-07-01T18:54:27.362Z,21.60
2018-07-01T18:56:54.412Z,21.60
2018-07-01T18:59:22.842Z,21.50
2018-07-01T19:01:49.915Z,21.50
2018-07-01T19:04:17.024Z,21.50
2018-07-01T19:06:44.060Z,21.50
2018-07-01T19:09:12.501Z,21.40
2018-07-01T19:11:39.768Z,21.20
2018-07-01T19:14:06.825Z,21.30
2018-07-01T19:16:33.911Z,21.20
2018-07-01T19:19:01.190Z,21.20
2018-07-01T19:21:28.270Z,21.10
2018-07-01T19:23:55.603Z,21.20
2018-07-01T19:26:23.044Z,21.20
2018-07-01T19:28:51.172Z,21.10
2018-07-01T19:31:18.319Z,21.00
2018-07-01T19:36:13.503Z,21.10
2018-07-01T19:41:20.057Z,21.20
2018-07-01T19:43:47.129Z,21.40
2018-07-01T19:46:14.248Z,21.40
2018-07-01T19:48:41.431Z,21.30
2018-07-01T19:51:08.575Z,21.30
2018-07-01T19:53:35.672Z,21.10
2018-07-01T19:56:03.255Z,21.00
2018-07-01T19:58:30.221Z,21.10
2018-07-01T20:00:57.233Z,21.20
2018-07-01T20:03:24.361Z,21.20
2018-07-01T20:08:31.583Z,21.30
2018-07-01T20:10:58.580Z,21.10
2018-07-01T20:13:25.732Z,21.00
2018-07-01T20:15:52.746Z,20.90
2018-07-01T20:20:47.963Z,20.90
2018-07-01T20:25:42.182Z,20.90
2018-07-01T20:28:09.200Z,20.70
2018-07-01T20:30:36.213Z,20.80
2018-07-01T20:33:03.316Z,20.80
2018-07-01T20:35:30.311Z,20.70
2018-07-01T20:37:57.357Z,20.60
2018-07-01T20:40:24.390Z,20.50
2018-07-01T20:42:51.377Z,20.70
2018-07-01T20:50:12.723Z,20.50
2018-07-01T20:52:39.771Z,20.60
2018-07-01T20:55:06.755Z,20.30
2018-07-01T20:57:33.753Z,20.20
2018-07-01T21:00:00.791Z,20.30
2018-07-01T21:04:54.901Z,20.00
2018-07-01T21:07:21.943Z,20.00
2018-07-01T21:12:15.990Z,20.00
2018-07-01T21:14:43.021Z,20.00
2018-07-01T21:17:10.030Z,19.90
2018-07-01T21:19:37.046Z,19.80
2018-07-01T21:22:05.071Z,19.50
2018-07-01T21:24:32.094Z,19.50
2018-07-01T21:30:19.365Z,19.40
2018-07-01T21:32:46.381Z,19.30
2018-07-01T21:35:13.409Z,19.20
2018-07-01T21:45:17.682Z,18.60
2018-07-01T21:47:44.685Z,18.50
2018-07-01T21:50:11.925Z,18.50
2018-07-01T21:52:38.919Z,18.40
2018-07-01T21:55:05.904Z,18.40
2018-07-01T21:57:32.948Z,18.40
2018-07-01T22:02:35.432Z,18.30
2018-07-01T22:05:02.101Z,18.30
2018-07-01T22:07:32.922Z,18.30
2018-07-01T22:15:55.197Z,18.20
2018-07-01T22:18:20.172Z,18.20
2018-07-01T22:20:47.131Z,18.20
2018-07-01T22:23:14.106Z,18.10
2018-07-01T22:25:41.103Z,18.00
2018-07-01T22:28:08.271Z,18.10
2018-07-01T22:30:35.285Z,18.10
2018-07-01T22:33:02.271Z,18.00
2018-07-01T22:35:29.295Z,18.00
2018-07-01T22:37:57.181Z,17.90
2018-07-01T22:40:24.175Z,17.80
2018-07-01T22:42:52.065Z,17.80
2018-07-01T22:45:20.012Z,17.70
2018-07-01T22:47:47.014Z,17.70
2018-07-01T22:50:14.017Z,17.60
2018-07-01T22:52:41.011Z,17.60
2018-07-01T22:55:08.755Z,17.50
2018-07-01T22:57:35.787Z,17.50
2018-07-01T23:00:02.770Z,17.50
2018-07-01T23:05:20.459Z,17.40
2018-07-01T23:07:47.508Z,17.40
2018-07-01T23:10:14.499Z,17.40
2018-07-01T23:12:41.494Z,17.40
2018-07-01T23:15:08.542Z,17.30
2018-07-01T23:17:35.543Z,17.30
2018-07-01T23:20:02.547Z,17.40
2018-07-01T23:22:29.586Z,17.30
2018-07-01T23:24:56.636Z,17.40
2018-07-01T23:29:50.681Z,17.40
2018-07-01T23:32:17.674Z,17.40
2018-07-01T23:34:44.676Z,17.50
2018-07-01T23:37:11.713Z,17.50
2018-07-01T23:42:05.796Z,17.30
2018-07-01T23:44:32.815Z,17.30
2018-07-01T23:46:59.802Z,17.50
2018-07-01T23:49:27.626Z,17.60
2018-07-01T23:51:54.661Z,17.70
2018-07-01T23:54:22.502Z,17.70
2018-07-01T23:56:49.499Z,17.80
